createdAt,value
2023-01-22T00:01:12.804Z,74.70
2023-01-22T00:03:40.958Z,74.70
2023-01-22T00:06:08.782Z,74.80
2023-01-22T00:08:35.907Z,75.00
2023-01-22T00:11:02.835Z,75.10
2023-01-22T00:13:30.215Z,74.60
2023-01-22T00:15:58.399Z,74.30
2023-01-22T00:18:25.478Z,74.40
2023-01-22T00:20:53.909Z,74.30
2023-01-22T00:23:21.094Z,74.30
2023-01-22T00:25:48.072Z,74.60
2023-01-22T00:28:15.635Z,74.60
2023-01-22T00:30:42.740Z,74.70
2023-01-22T00:33:09.405Z,74.60
2023-01-22T00:35:36.162Z,74.70
2023-01-22T00:38:03.835Z,74.80
2023-01-22T00:40:30.725Z,74.60
2023-01-22T00:42:57.473Z,74.20
2023-01-22T00:45:24.235Z,73.60
2023-01-22T00:47:52.090Z,73.30
2023-01-22T00:50:19.421Z,73.20
2023-01-22T00:52:46.294Z,73.30
2023-01-22T00:55:13.016Z,73.60
2023-01-22T00:57:39.793Z,74.00
2023-01-22T01:00:09.256Z,73.80
2023-01-22T01:02:56.500Z,73.60
2023-01-22T01:05:23.215Z,73.50
2023-01-22T01:07:50.058Z,73.50
2023-01-22T01:10:17.861Z,73.40
2023-01-22T01:12:44.843Z,73.50
2023-01-22T01:15:11.884Z,73.70
2023-01-22T01:17:39.168Z,73.10
2023-01-22T01:20:06.514Z,72.90
2023-01-22T01:22:33.240Z,72.60
2023-01-22T01:25:00.100Z,72.90
2023-01-22T01:27:27.215Z,72.50
2023-01-22T01:29:53.908Z,72.70
2023-01-22T01:32:20.661Z,72.80
2023-01-22T01:34:49.549Z,73.10
2023-01-22T01:37:17.406Z,73.50
2023-01-22T01:39:44.109Z,72.60
2023-01-22T01:42:11.582Z,72.20
2023-01-22T01:44:40.306Z,72.30
2023-01-22T01:47:30.536Z,72.40
2023-01-22T01:49:57.363Z,72.00
2023-01-22T01:52:24.210Z,72.00
2023-01-22T01:54:53.921Z,72.30
2023-01-22T01:57:27.737Z,72.90
2023-01-22T01:59:56.597Z,72.30
2023-01-22T02:02:23.516Z,72.80
2023-01-22T02:04:51.240Z,73.10
2023-01-22T02:07:18.659Z,73.00
2023-01-22T02:09:45.692Z,72.90
2023-01-22T02:12:12.423Z,73.20
2023-01-22T02:14:42.943Z,73.30
2023-01-22T02:17:15.756Z,73.40
2023-01-22T02:19:44.059Z,73.10
2023-01-22T02:22:29.912Z,73.20
2023-01-22T02:24:57.012Z,73.00
2023-01-22T02:27:24.147Z,73.20
2023-01-22T02:29:51.574Z,73.50
2023-01-22T02:32:18.479Z,73.20
2023-01-22T02:34:45.365Z,73.50
2023-01-22T02:37:12.313Z,73.60
2023-01-22T02:39:39.080Z,74.10
2023-01-22T02:42:06.205Z,74.30
2023-01-22T02:44:32.943Z,74.70
2023-01-22T02:47:00.034Z,74.70
2023-01-22T02:49:26.737Z,74.70
2023-01-22T02:51:53.493Z,74.60
2023-01-22T02:54:20.327Z,73.90
2023-01-22T02:56:47.131Z,74.60
2023-01-22T02:59:13.953Z,74.70
2023-01-22T03:01:40.795Z,74.80
2023-01-22T03:04:10.932Z,74.20
2023-01-22T03:06:40.575Z,74.40
2023-01-22T03:09:08.083Z,74.50
2023-01-22T03:11:36.950Z,74.50
2023-01-22T03:14:22.800Z,74.60
2023-01-22T03:17:08.663Z,74.70
2023-01-22T03:20:10.335Z,74.90
2023-01-22T03:22:37.256Z,75.30
2023-01-22T03:25:04.225Z,76.20
2023-01-22T03:27:32.088Z,76.30
2023-01-22T03:29:58.884Z,76.60
2023-01-22T03:32:26.006Z,77.00
2023-01-22T03:34:53.992Z,76.90
2023-01-22T03:37:20.966Z,77.00
2023-01-22T03:39:48.106Z,77.40
2023-01-22T03:42:14.956Z,77.20
2023-01-22T03:44:41.758Z,78.10
2023-01-22T03:47:08.553Z,78.30
2023-01-22T03:49:35.377Z,78.80
2023-01-22T03:52:02.204Z,78.80
2023-01-22T03:54:28.922Z,79.70
2023-01-22T03:56:55.685Z,79.40
2023-01-22T03:59:22.410Z,79.70
2023-01-22T04:01:50.881Z,80.10
2023-01-22T04:04:17.664Z,80.50
2023-01-22T04:06:44.432Z,81.40
2023-01-22T04:09:11.223Z,81.90
2023-01-22T04:11:37.990Z,82.20
2023-01-22T04:14:04.675Z,82.30
2023-01-22T04:16:31.587Z,82.40
2023-01-22T04:18:58.383Z,82.20
2023-01-22T04:21:25.266Z,82.00
2023-01-22T04:23:51.935Z,81.60
2023-01-22T04:26:18.742Z,81.30
2023-01-22T04:28:45.494Z,81.00
2023-01-22T04:31:12.442Z,81.40
2023-01-22T04:33:39.276Z,81.00
2023-01-22T04:36:06.067Z,80.60
2023-01-22T04:38:32.848Z,80.70
2023-01-22T04:40:59.534Z,81.00
2023-01-22T04:43:26.255Z,81.30
2023-01-22T04:45:53.056Z,81.10
2023-01-22T04:48:19.799Z,81.70
2023-01-22T04:50:46.669Z,82.20
2023-01-22T04:53:13.420Z,82.50
2023-01-22T04:55:42.030Z,82.70
2023-01-22T04:58:09.395Z,82.70
2023-01-22T05:00:36.591Z,83.00
2023-01-22T05:03:04.700Z,83.00
2023-01-22T05:05:33.362Z,83.30
2023-01-22T05:08:00.477Z,83.50
2023-01-22T05:10:27.526Z,83.60
2023-01-22T05:12:54.305Z,82.80
2023-01-22T05:15:25.181Z,82.90
2023-01-22T05:17:52.914Z,82.30
2023-01-22T05:20:20.433Z,82.20
2023-01-22T05:22:47.306Z,82.00
2023-01-22T05:25:14.076Z,81.60
2023-01-22T05:27:41.013Z,82.40
2023-01-22T05:30:08.659Z,82.90
2023-01-22T05:32:35.571Z,82.60
2023-01-22T05:35:02.925Z,82.80
2023-01-22T05:37:31.077Z,82.90
2023-01-22T05:39:57.768Z,82.40
2023-01-22T05:42:25.496Z,82.90
2023-01-22T05:44:52.172Z,83.00
2023-01-22T05:47:18.982Z,83.10
2023-01-22T05:49:45.724Z,82.70
2023-01-22T05:52:12.500Z,82.10
2023-01-22T05:54:39.866Z,81.50
2023-01-22T05:57:07.504Z,80.70
2023-01-22T05:59:34.985Z,80.40
2023-01-22T06:02:02.141Z,80.10
2023-01-22T06:04:29.153Z,79.70
2023-01-22T06:06:55.976Z,79.10
2023-01-22T06:09:22.988Z,79.10
2023-01-22T06:11:49.778Z,78.60
2023-01-22T06:14:16.583Z,78.00
2023-01-22T06:16:43.622Z,77.50
2023-01-22T06:19:10.493Z,77.00
2023-01-22T06:21:37.305Z,76.90
2023-01-22T06:24:04.344Z,77.30
2023-01-22T06:26:31.122Z,77.00
2023-01-22T06:28:57.824Z,77.00
2023-01-22T06:31:24.676Z,76.60
2023-01-22T06:33:53.646Z,76.90
2023-01-22T06:36:20.638Z,76.90
2023-01-22T06:38:47.395Z,76.90
2023-01-22T06:41:14.233Z,76.90
2023-01-22T06:43:40.982Z,77.60
2023-01-22T06:46:07.793Z,77.70
2023-01-22T06:48:34.607Z,78.10
2023-01-22T06:51:01.467Z,78.20
2023-01-22T06:53:28.712Z,78.00
2023-01-22T06:55:55.572Z,77.50
2023-01-22T06:58:22.383Z,77.50
2023-01-22T07:00:49.156Z,77.70
2023-01-22T07:03:15.938Z,77.50
2023-01-22T07:05:42.753Z,77.20
2023-01-22T07:08:15.083Z,77.00
2023-01-22T07:10:42.347Z,77.60
2023-01-22T07:13:10.286Z,77.80
2023-01-22T07:15:37.168Z,77.50
2023-01-22T07:18:03.936Z,77.20
2023-01-22T07:20:30.698Z,76.60
2023-01-22T07:23:00.205Z,76.00
2023-01-22T07:25:27.937Z,75.70
2023-01-22T07:28:05.220Z,75.10
2023-01-22T07:30:32.035Z,75.10
2023-01-22T07:33:02.613Z,74.90
2023-01-22T07:35:30.038Z,75.20
2023-01-22T07:37:58.783Z,75.70
2023-01-22T07:40:26.642Z,76.30
2023-01-22T07:42:54.336Z,76.70
2023-01-22T07:45:21.699Z,76.50
2023-01-22T07:47:59.569Z,76.10
2023-01-22T07:50:29.452Z,76.20
2023-01-22T07:52:56.601Z,75.50
2023-01-22T07:55:24.073Z,75.20
2023-01-22T07:58:11.385Z,74.90
2023-01-22T08:00:38.273Z,74.70
2023-01-22T08:03:06.056Z,73.70
2023-01-22T08:05:33.058Z,73.80
2023-01-22T08:07:59.786Z,73.80
2023-01-22T08:10:26.789Z,74.30
2023-01-22T08:12:53.621Z,73.50
2023-01-22T08:15:20.567Z,73.30
2023-01-22T08:17:52.640Z,73.30
2023-01-22T08:20:19.816Z,72.70
2023-01-22T08:22:46.995Z,72.10
2023-01-22T08:25:13.933Z,71.50
2023-01-22T08:27:41.502Z,71.10
2023-01-22T08:30:11.227Z,70.70
2023-01-22T08:32:41.222Z,70.80
2023-01-22T08:35:09.105Z,70.80
2023-01-22T08:37:35.847Z,70.40
2023-01-22T08:40:02.704Z,69.80
2023-01-22T08:42:29.500Z,69.50
2023-01-22T08:44:56.227Z,67.80
2023-01-22T08:47:23.000Z,65.80
2023-01-22T08:49:49.887Z,65.60
2023-01-22T08:52:17.086Z,66.40
2023-01-22T08:54:43.811Z,66.80
2023-01-22T08:57:10.615Z,67.00
2023-01-22T08:59:37.311Z,66.70
2023-01-22T09:02:04.147Z,66.60
2023-01-22T09:04:30.928Z,66.90
2023-01-22T09:06:57.784Z,66.80
2023-01-22T09:09:24.483Z,67.50
2023-01-22T09:11:51.278Z,67.10
2023-01-22T09:14:18.133Z,66.70
2023-01-22T09:16:44.928Z,66.90
2023-01-22T09:19:12.014Z,67.10
2023-01-22T09:21:39.875Z,66.60
2023-01-22T09:24:07.807Z,66.60
2023-01-22T09:26:36.967Z,65.20
2023-01-22T09:29:05.866Z,64.50
2023-01-22T09:31:33.883Z,63.80
2023-01-22T09:34:00.706Z,63.60
2023-01-22T09:36:27.885Z,62.90
2023-01-22T09:38:54.994Z,62.90
2023-01-22T09:41:21.692Z,62.10
2023-01-22T09:43:51.084Z,61.40
2023-01-22T09:46:26.216Z,61.70
2023-01-22T09:48:57.585Z,61.20
2023-01-22T09:51:25.217Z,60.90
2023-01-22T09:53:57.868Z,60.50
2023-01-22T09:56:40.308Z,60.40
2023-01-22T09:59:11.600Z,60.20
2023-01-22T10:01:38.521Z,60.70
2023-01-22T10:04:20.725Z,60.60
2023-01-22T10:06:48.855Z,60.70
2023-01-22T10:09:19.292Z,60.60
2023-01-22T10:11:53.907Z,61.40
2023-01-22T10:14:23.232Z,61.50
2023-01-22T10:16:50.162Z,62.50
2023-01-22T10:19:24.716Z,63.30
2023-01-22T10:22:02.404Z,64.70
2023-01-22T10:24:30.163Z,66.30
2023-01-22T10:26:58.913Z,67.20
2023-01-22T10:29:33.366Z,67.90
2023-01-22T10:32:02.783Z,68.40
2023-01-22T10:34:35.955Z,68.30
2023-01-22T10:37:17.834Z,68.40
2023-01-22T10:39:50.755Z,69.00
2023-01-22T10:42:20.359Z,69.90
2023-01-22T10:44:47.778Z,70.70
2023-01-22T10:47:23.304Z,70.60
2023-01-22T10:50:06.412Z,71.50
2023-01-22T10:52:39.599Z,71.60
2023-01-22T10:55:07.505Z,71.10
2023-01-22T10:57:37.847Z,69.80
2023-01-22T11:00:27.201Z,69.90
2023-01-22T11:02:53.977Z,69.30
2023-01-22T11:05:23.944Z,68.10
2023-01-22T11:08:18.812Z,68.30
2023-01-22T11:10:56.413Z,67.80
2023-01-22T11:13:38.721Z,68.00
2023-01-22T11:16:34.729Z,68.50
2023-01-22T11:19:18.154Z,68.20
2023-01-22T11:21:51.533Z,67.80
2023-01-22T11:24:24.679Z,67.80
2023-01-22T11:27:22.762Z,67.30
2023-01-22T11:30:18.089Z,67.10
2023-01-22T11:33:16.685Z,66.40
2023-01-22T11:36:27.472Z,66.30
2023-01-22T11:39:02.330Z,65.40
2023-01-22T11:41:47.254Z,63.70
2023-01-22T11:44:32.541Z,62.10
2023-01-22T11:47:27.809Z,62.40
2023-01-22T11:50:37.173Z,60.80
2023-01-22T11:53:30.064Z,59.50
2023-01-22T11:56:32.572Z,60.60
2023-01-22T11:59:37.293Z,62.00
2023-01-22T12:02:16.030Z,61.10
2023-01-22T12:05:03.065Z,61.10
2023-01-22T12:07:53.943Z,61.10
2023-01-22T12:10:49.749Z,60.70
2023-01-22T12:13:31.968Z,60.10
2023-01-22T12:16:23.894Z,60.50
2023-01-22T12:19:13.416Z,60.30
2023-01-22T12:22:07.261Z,61.10
2023-01-22T12:24:54.204Z,61.80
2023-01-22T12:27:29.195Z,62.50
2023-01-22T12:30:14.068Z,62.80
2023-01-22T12:32:46.671Z,62.80
2023-01-22T12:35:19.866Z,62.80
2023-01-22T12:38:07.605Z,62.50
2023-01-22T12:40:59.530Z,62.20
2023-01-22T12:43:34.745Z,62.70
2023-01-22T12:46:22.793Z,62.50
2023-01-22T12:49:00.255Z,62.90
2023-01-22T12:51:28.564Z,62.80
2023-01-22T12:53:55.318Z,63.00
2023-01-22T12:56:32.834Z,63.10
2023-01-22T12:59:00.137Z,63.20
2023-01-22T13:01:35.784Z,62.40
2023-01-22T13:04:06.768Z,62.80
2023-01-22T13:06:38.738Z,62.40
2023-01-22T13:09:22.157Z,61.80
2023-01-22T13:11:48.919Z,60.60
2023-01-22T13:14:29.065Z,59.50
2023-01-22T13:17:03.422Z,59.90
2023-01-22T13:19:39.212Z,61.10
2023-01-22T13:22:08.087Z,61.70
2023-01-22T13:24:35.984Z,62.80
2023-01-22T13:27:03.838Z,63.10
2023-01-22T13:29:37.812Z,63.50
2023-01-22T13:32:17.025Z,63.40
2023-01-22T13:34:43.869Z,62.60
2023-01-22T13:37:24.720Z,62.00
2023-01-22T13:39:51.677Z,61.90
2023-01-22T13:42:18.568Z,61.00
2023-01-22T13:44:49.068Z,60.60
2023-01-22T13:47:32.829Z,59.80
2023-01-22T13:50:00.142Z,59.50
2023-01-22T13:52:28.610Z,59.10
2023-01-22T13:55:11.039Z,59.10
2023-01-22T13:57:47.984Z,58.90
2023-01-22T14:00:22.662Z,59.40
2023-01-22T14:02:50.008Z,59.50
2023-01-22T14:05:19.183Z,59.20
2023-01-22T14:07:46.184Z,59.30
2023-01-22T14:10:18.048Z,60.10
2023-01-22T14:12:45.316Z,60.00
2023-01-22T14:15:21.248Z,60.30
2023-01-22T14:17:49.829Z,59.70
2023-01-22T14:20:17.849Z,60.00
2023-01-22T14:22:44.774Z,61.30
2023-01-22T14:25:11.450Z,61.90
2023-01-22T14:27:47.443Z,61.80
2023-01-22T14:30:17.368Z,61.80
2023-01-22T14:32:45.519Z,62.00
2023-01-22T14:35:17.918Z,63.00
2023-01-22T14:37:45.123Z,63.20
2023-01-22T14:40:14.150Z,63.20
2023-01-22T14:42:40.997Z,63.50
2023-01-22T14:45:09.605Z,63.20
2023-01-22T14:47:36.329Z,63.10
2023-01-22T14:50:04.373Z,63.30
2023-01-22T14:52:31.155Z,63.50
2023-01-22T14:54:58.013Z,63.20
2023-01-22T14:57:25.674Z,62.50
2023-01-22T14:59:52.430Z,61.30
2023-01-22T15:02:19.439Z,61.70
2023-01-22T15:04:47.111Z,61.40
2023-01-22T15:07:13.951Z,61.00
2023-01-22T15:09:40.769Z,60.60
2023-01-22T15:12:07.898Z,62.00
2023-01-22T15:14:34.795Z,63.00
2023-01-22T15:17:01.537Z,63.50
2023-01-22T15:19:32.224Z,64.40
2023-01-22T15:22:05.780Z,64.50
2023-01-22T15:24:32.558Z,65.20
2023-01-22T15:26:59.330Z,66.20
2023-01-22T15:29:26.179Z,66.40
2023-01-22T15:31:53.173Z,66.10
2023-01-22T15:34:20.397Z,66.40
2023-01-22T15:36:47.195Z,66.40
2023-01-22T15:39:14.004Z,67.20
2023-01-22T15:41:41.136Z,66.00
2023-01-22T15:44:08.141Z,65.60
2023-01-22T15:46:37.147Z,66.80
2023-01-22T15:49:05.222Z,67.30
2023-01-22T15:51:31.989Z,67.00
2023-01-22T15:54:00.901Z,66.30
2023-01-22T15:56:30.202Z,66.70
2023-01-22T15:58:58.027Z,66.70
2023-01-22T16:01:28.714Z,66.90
2023-01-22T16:04:00.623Z,66.60
2023-01-22T16:06:29.888Z,65.80
2023-01-22T16:08:58.850Z,66.50
2023-01-22T16:11:28.252Z,64.10
2023-01-22T16:13:55.348Z,64.40
2023-01-22T16:16:34.926Z,64.30
2023-01-22T16:19:04.928Z,63.80
2023-01-22T16:21:31.886Z,64.00
2023-01-22T16:24:01.104Z,64.20
2023-01-22T16:26:30.960Z,64.80
2023-01-22T16:28:59.611Z,64.80
2023-01-22T16:31:29.583Z,64.90
2023-01-22T16:33:58.468Z,64.50
2023-01-22T16:36:29.027Z,64.90
2023-01-22T16:38:55.820Z,65.20
2023-01-22T16:41:30.689Z,65.20
2023-01-22T16:43:59.423Z,66.00
2023-01-22T16:46:29.339Z,66.50
2023-01-22T16:49:04.968Z,66.40
2023-01-22T16:51:37.899Z,66.90
2023-01-22T16:54:05.774Z,67.80
2023-01-22T16:56:33.008Z,67.70
2023-01-22T16:59:00.279Z,67.90
2023-01-22T17:01:30.420Z,67.70
2023-01-22T17:03:57.199Z,67.50
2023-01-22T17:06:31.261Z,68.00
2023-01-22T17:08:59.993Z,68.50
2023-01-22T17:11:27.464Z,69.20
2023-01-22T17:13:54.732Z,69.00
2023-01-22T17:16:21.552Z,69.30
2023-01-22T17:18:48.452Z,70.10
2023-01-22T17:21:18.698Z,70.90
2023-01-22T17:23:45.890Z,70.60
2023-01-22T17:26:15.041Z,70.40
2023-01-22T17:28:42.342Z,69.70
2023-01-22T17:31:12.118Z,70.10
2023-01-22T17:33:39.393Z,70.00
2023-01-22T17:36:07.015Z,69.00
2023-01-22T17:38:38.380Z,68.10
2023-01-22T17:41:11.512Z,67.90
2023-01-22T17:43:38.905Z,67.60
2023-01-22T17:46:17.073Z,67.70
2023-01-22T17:48:45.083Z,67.60
2023-01-22T17:51:15.144Z,67.80
2023-01-22T17:53:43.509Z,67.80
2023-01-22T17:56:13.445Z,66.90
2023-01-22T17:58:50.300Z,67.00
2023-01-22T18:01:19.617Z,66.40
2023-01-22T18:03:47.661Z,65.80
2023-01-22T18:06:15.339Z,65.90
2023-01-22T18:08:42.633Z,66.30
2023-01-22T18:11:20.690Z,66.50
2023-01-22T18:13:48.168Z,66.40
2023-01-22T18:16:18.027Z,66.20
2023-01-22T18:18:45.417Z,66.90
2023-01-22T18:21:17.215Z,67.20
2023-01-22T18:23:44.529Z,67.80
2023-01-22T18:26:11.831Z,68.00
2023-01-22T18:28:39.567Z,68.90
2023-01-22T18:31:14.731Z,68.30
2023-01-22T18:33:44.411Z,67.90
2023-01-22T18:36:14.683Z,68.50
2023-01-22T18:38:41.855Z,68.40
2023-01-22T18:41:18.927Z,69.00
2023-01-22T18:43:53.388Z,68.50
2023-01-22T18:46:21.507Z,68.80
2023-01-22T18:48:53.686Z,69.30
2023-01-22T18:51:20.878Z,69.20
2023-01-22T18:53:47.845Z,69.10
2023-01-22T18:56:15.013Z,69.20
2023-01-22T18:58:44.638Z,69.20
2023-01-22T19:01:17.514Z,69.10
2023-01-22T19:03:47.041Z,69.40
2023-01-22T19:06:16.444Z,69.70
2023-01-22T19:08:47.061Z,70.60
2023-01-22T19:11:15.062Z,71.20
2023-01-22T19:13:44.901Z,71.20
2023-01-22T19:16:15.135Z,70.20
2023-01-22T19:18:42.978Z,69.90
2023-01-22T19:21:19.140Z,70.00
2023-01-22T19:23:48.158Z,70.20
2023-01-22T19:26:23.935Z,70.10
2023-01-22T19:28:54.099Z,70.30
2023-01-22T19:31:24.034Z,70.40
2023-01-22T19:33:52.661Z,71.50
2023-01-22T19:36:20.669Z,72.30
2023-01-22T19:38:47.916Z,71.70
2023-01-22T19:41:15.342Z,72.50
2023-01-22T19:43:42.517Z,72.50
2023-01-22T19:46:12.852Z,72.90
2023-01-22T19:48:40.935Z,73.10
2023-01-22T19:51:12.940Z,73.60
2023-01-22T19:53:41.057Z,73.70
2023-01-22T19:56:21.152Z,73.70
2023-01-22T19:58:48.940Z,74.10
2023-01-22T20:01:16.651Z,74.50
2023-01-22T20:03:44.079Z,74.50
2023-01-22T20:06:12.668Z,74.30
2023-01-22T20:08:39.800Z,74.60
2023-01-22T20:11:09.228Z,74.20
2023-01-22T20:13:36.774Z,74.30
2023-01-22T20:16:05.192Z,74.10
2023-01-22T20:18:33.023Z,74.30
2023-01-22T20:21:01.848Z,74.40
2023-01-22T20:23:29.346Z,74.90
2023-01-22T20:25:57.148Z,74.40
2023-01-22T20:28:23.912Z,74.70
2023-01-22T20:31:04.073Z,75.00
2023-01-22T20:33:32.021Z,74.80
2023-01-22T20:36:01.335Z,74.50
2023-01-22T20:38:28.844Z,74.80
2023-01-22T20:40:58.603Z,74.90
2023-01-22T20:43:25.574Z,75.10
2023-01-22T20:46:13.765Z,74.80
2023-01-22T20:48:41.624Z,74.90
2023-01-22T20:51:15.468Z,75.50
2023-01-22T20:53:43.266Z,75.80
2023-01-22T20:56:18.291Z,75.90
2023-01-22T20:58:45.130Z,75.60
2023-01-22T21:01:19.091Z,77.10
2023-01-22T21:03:47.817Z,77.40
2023-01-22T21:06:17.463Z,77.70
2023-01-22T21:08:51.783Z,77.60
2023-01-22T21:11:20.714Z,78.10
2023-01-22T21:13:49.227Z,78.70
2023-01-22T21:16:18.652Z,77.90
2023-01-22T21:18:46.344Z,77.90
2023-01-22T21:21:18.343Z,78.20
2023-01-22T21:23:48.136Z,77.70
2023-01-22T21:26:16.473Z,77.20
2023-01-22T21:28:43.221Z,77.40
2023-01-22T21:31:15.640Z,77.80
2023-01-22T21:33:43.724Z,78.90
2023-01-22T21:36:12.460Z,79.80
2023-01-22T21:38:39.574Z,80.60
2023-01-22T21:41:12.645Z,81.50
2023-01-22T21:43:59.950Z,81.80
2023-01-22T21:46:28.116Z,82.50
2023-01-22T21:49:01.146Z,82.80
2023-01-22T21:51:29.587Z,82.00
2023-01-22T21:53:57.854Z,81.30
2023-01-22T21:56:25.461Z,80.90
2023-01-22T21:58:52.229Z,80.20
2023-01-22T22:01:21.985Z,79.80
2023-01-22T22:03:49.017Z,80.20
2023-01-22T22:06:15.863Z,80.70
2023-01-22T22:08:44.334Z,80.50
2023-01-22T22:11:12.980Z,80.70
2023-01-22T22:13:40.079Z,81.60
2023-01-22T22:16:08.180Z,80.10
2023-01-22T22:18:35.758Z,80.00
2023-01-22T22:21:05.363Z,79.00
2023-01-22T22:23:35.851Z,78.50
2023-01-22T22:26:04.685Z,77.20
2023-01-22T22:28:32.385Z,76.30
2023-01-22T22:31:17.906Z,75.80
2023-01-22T22:33:56.272Z,75.90
2023-01-22T22:36:25.996Z,74.10
2023-01-22T22:38:53.335Z,74.00
2023-01-22T22:41:23.143Z,73.70
2023-01-22T22:43:52.243Z,73.70
2023-01-22T22:46:28.608Z,75.00
2023-01-22T22:48:56.791Z,76.00
2023-01-22T22:51:26.811Z,77.50
2023-01-22T22:53:56.141Z,77.60
2023-01-22T22:56:23.464Z,78.10
2023-01-22T22:58:50.536Z,77.70
2023-01-22T23:01:21.612Z,77.70
2023-01-22T23:03:48.488Z,77.80
2023-01-22T23:06:18.723Z,77.70
2023-01-22T23:08:52.207Z,77.80
2023-01-22T23:11:26.051Z,77.70
2023-01-22T23:13:53.357Z,77.50
2023-01-22T23:16:22.683Z,76.80
2023-01-22T23:18:51.660Z,76.30
2023-01-22T23:21:21.585Z,75.60
2023-01-22T23:23:49.179Z,75.20
2023-01-22T23:26:19.594Z,74.20
2023-01-22T23:28:47.457Z,73.50
2023-01-22T23:31:16.809Z,73.00
2023-01-22T23:33:44.317Z,72.70
2023-01-22T23:36:14.067Z,72.70
2023-01-22T23:38:42.534Z,72.10
2023-01-22T23:41:12.112Z,71.70
2023-01-22T23:43:39.255Z,72.50
2023-01-22T23:46:11.071Z,73.50
2023-01-22T23:48:38.058Z,73.80
2023-01-22T23:51:07.649Z,74.20
2023-01-22T23:53:42.986Z,75.00
2023-01-22T23:56:14.266Z,75.30
2023-01-22T23:58:41.737Z,76.50
